createdAt,value
2022-10-05T00:00:31.929Z,90
2022-10-05T00:01:31.802Z,90
2022-10-05T00:02:31.701Z,90
2022-10-05T00:03:31.695Z,90
2022-10-05T00:04:31.720Z,90
2022-10-05T00:05:31.748Z,90
2022-10-05T00:06:31.718Z,90
2022-10-05T00:07:31.680Z,90
2022-10-05T00:08:31.768Z,90
2022-10-05T00:09:31.716Z,90
2022-10-05T00:10:31.716Z,90
2022-10-05T00:11:31.687Z,90
2022-10-05T00:12:31.718Z,90
2022-10-05T00:13:31.711Z,90
2022-10-05T00:14:31.707Z,90
2022-10-05T00:15:31.691Z,90
2022-10-05T00:16:31.758Z,90
2022-10-05T00:17:31.778Z,90
2022-10-05T00:18:31.700Z,90
2022-10-05T00:19:31.731Z,90
2022-10-05T00:20:31.720Z,90
2022-10-05T00:21:31.731Z,90
2022-10-05T00:22:31.782Z,90
2022-10-05T00:23:31.698Z,90
2022-10-05T00:24:31.776Z,90
2022-10-05T00:25:31.711Z,90
2022-10-05T00:26:31.723Z,90
2022-10-05T00:27:31.676Z,90
2022-10-05T00:28:31.771Z,90
2022-10-05T00:29:31.723Z,90
2022-10-05T00:30:31.730Z,90
2022-10-05T00:31:31.797Z,90
2022-10-05T00:32:31.728Z,90
2022-10-05T00:33:31.676Z,90
2022-10-05T00:34:31.703Z,90
2022-10-05T00:35:31.745Z,90
2022-10-05T00:36:31.723Z,90
2022-10-05T00:37:31.726Z,90
2022-10-05T00:38:31.699Z,90
2022-10-05T00:39:31.669Z,90
2022-10-05T00:40:31.712Z,90
2022-10-05T00:41:31.693Z,90
2022-10-05T00:42:31.697Z,90
2022-10-05T00:43:31.690Z,90
2022-10-05T00:44:31.716Z,90
2022-10-05T00:45:31.842Z,90
2022-10-05T00:46:31.697Z,90
2022-10-05T00:47:31.698Z,90
2022-10-05T00:48:31.722Z,90
2022-10-05T00:49:31.686Z,90
2022-10-05T00:50:31.754Z,90
2022-10-05T00:51:31.678Z,90
2022-10-05T00:52:31.698Z,90
2022-10-05T00:53:31.710Z,90
2022-10-05T00:54:31.674Z,90
2022-10-05T00:55:31.680Z,90
2022-10-05T00:56:31.773Z,90
2022-10-05T00:57:31.806Z,90
2022-10-05T00:58:31.681Z,90
2022-10-05T00:59:31.665Z,90
2022-10-05T01:00:31.680Z,90
2022-10-05T01:01:31.795Z,90
2022-10-05T01:02:36.502Z,90
2022-10-05T01:03:31.674Z,90
2022-10-05T01:04:31.685Z,90
2022-10-05T01:05:31.684Z,90
2022-10-05T01:06:31.711Z,90
2022-10-05T01:07:31.682Z,90
2022-10-05T01:08:31.709Z,90
2022-10-05T01:09:31.678Z,90
2022-10-05T01:10:31.697Z,90
2022-10-05T01:11:31.657Z,90
2022-10-05T01:12:31.713Z,90
2022-10-05T01:13:31.784Z,90
2022-10-05T01:14:31.841Z,90
2022-10-05T01:15:31.698Z,90
2022-10-05T01:16:31.731Z,90
2022-10-05T01:17:31.685Z,90
2022-10-05T01:18:31.757Z,90
2022-10-05T01:19:31.745Z,90
2022-10-05T01:20:31.706Z,90
2022-10-05T01:21:31.707Z,90
2022-10-05T01:22:31.736Z,90
2022-10-05T01:23:31.659Z,90
2022-10-05T01:24:31.782Z,90
2022-10-05T01:25:31.711Z,90
2022-10-05T01:26:31.718Z,90
2022-10-05T01:27:31.655Z,91
2022-10-05T01:28:31.821Z,91
2022-10-05T01:29:31.713Z,91
2022-10-05T01:30:31.726Z,90
2022-10-05T01:31:31.712Z,90
2022-10-05T01:32:31.709Z,90
2022-10-05T01:33:31.723Z,90
2022-10-05T01:34:31.714Z,90
2022-10-05T01:35:31.708Z,90
2022-10-05T01:36:31.708Z,90
2022-10-05T01:37:31.678Z,90
2022-10-05T01:38:31.712Z,90
2022-10-05T01:39:31.727Z,90
2022-10-05T01:40:31.867Z,90
2022-10-05T01:41:31.864Z,90
2022-10-05T01:42:31.882Z,90
2022-10-05T01:43:31.869Z,90
2022-10-05T01:44:31.823Z,90
2022-10-05T01:45:31.860Z,90
2022-10-05T01:46:31.922Z,90
2022-10-05T01:47:31.885Z,90
2022-10-05T01:48:31.798Z,90
2022-10-05T01:49:31.685Z,90
2022-10-05T01:50:31.731Z,90
2022-10-05T01:51:31.699Z,90
2022-10-05T01:52:31.704Z,90
2022-10-05T01:53:31.689Z,90
2022-10-05T01:54:31.715Z,90
2022-10-05T01:55:31.722Z,90
2022-10-05T01:56:31.718Z,90
2022-10-05T01:57:31.687Z,90
2022-10-05T01:58:31.700Z,90
2022-10-05T01:59:31.739Z,90
2022-10-05T02:00:31.706Z,90
2022-10-05T02:01:31.700Z,90
2022-10-05T02:02:31.878Z,90
2022-10-05T02:03:31.701Z,90
2022-10-05T02:05:00.290Z,90
2022-10-05T02:05:31.719Z,90
2022-10-05T02:06:31.713Z,90
2022-10-05T02:07:31.693Z,90
2022-10-05T02:08:31.693Z,90
2022-10-05T02:09:31.683Z,90
2022-10-05T02:10:31.715Z,90
2022-10-05T02:11:31.694Z,90
2022-10-05T02:12:31.737Z,90
2022-10-05T02:13:31.696Z,90
2022-10-05T02:14:31.689Z,90
2022-10-05T02:15:31.737Z,90
2022-10-05T02:16:31.693Z,90
2022-10-05T02:17:31.689Z,90
2022-10-05T02:18:32.740Z,90
2022-10-05T02:19:31.712Z,90
2022-10-05T02:20:31.676Z,90
2022-10-05T02:21:31.702Z,90
2022-10-05T02:22:31.685Z,90
2022-10-05T02:23:31.690Z,90
2022-10-05T02:24:31.689Z,90
2022-10-05T02:25:31.680Z,90
2022-10-05T02:26:31.674Z,90
2022-10-05T02:27:31.686Z,90
2022-10-05T02:28:31.785Z,90
2022-10-05T02:29:31.684Z,90
2022-10-05T02:30:31.940Z,90
2022-10-05T02:31:31.769Z,90
2022-10-05T02:32:31.714Z,90
2022-10-05T02:33:31.703Z,90
2022-10-05T02:34:31.679Z,90
2022-10-05T02:35:31.692Z,90
2022-10-05T02:36:31.706Z,90
2022-10-05T02:37:31.683Z,90
2022-10-05T02:38:31.677Z,89
2022-10-05T02:39:31.695Z,89
2022-10-05T02:40:31.723Z,89
2022-10-05T02:41:31.680Z,89
2022-10-05T02:42:31.656Z,89
2022-10-05T02:43:31.689Z,89
2022-10-05T02:44:31.696Z,89
2022-10-05T02:45:31.804Z,89
2022-10-05T02:46:31.675Z,89
2022-10-05T02:47:31.709Z,89
2022-10-05T02:48:31.703Z,89
2022-10-05T02:49:31.696Z,89
2022-10-05T02:50:31.639Z,89
2022-10-05T02:51:31.689Z,89
2022-10-05T02:52:31.686Z,89
2022-10-05T02:53:31.708Z,89
2022-10-05T02:54:31.682Z,89
2022-10-05T02:55:31.695Z,89
2022-10-05T02:56:31.700Z,89
2022-10-05T02:57:31.716Z,89
2022-10-05T02:58:31.670Z,89
2022-10-05T02:59:31.702Z,89
2022-10-05T03:00:31.733Z,89
2022-10-05T03:01:31.813Z,89
2022-10-05T03:02:31.772Z,89
2022-10-05T03:03:31.714Z,89
2022-10-05T03:04:31.765Z,89
2022-10-05T03:05:31.715Z,89
2022-10-05T03:06:31.651Z,89
2022-10-05T03:07:31.714Z,89
2022-10-05T03:08:31.677Z,89
2022-10-05T03:09:31.684Z,89
2022-10-05T03:10:31.824Z,89
2022-10-05T03:11:31.733Z,89
2022-10-05T03:12:31.790Z,89
2022-10-05T03:13:31.783Z,89
2022-10-05T03:14:31.693Z,89
2022-10-05T03:15:31.817Z,89
2022-10-05T03:16:31.781Z,89
2022-10-05T03:17:31.730Z,89
2022-10-05T03:18:31.670Z,89
2022-10-05T03:19:31.798Z,89
2022-10-05T03:20:31.808Z,89
2022-10-05T03:21:31.676Z,89
2022-10-05T03:22:31.846Z,88
2022-10-05T03:23:31.868Z,88
2022-10-05T03:24:31.837Z,88
2022-10-05T03:25:31.825Z,88
2022-10-05T03:26:31.733Z,88
2022-10-05T03:27:31.867Z,88
2022-10-05T03:28:31.786Z,88
2022-10-05T03:29:31.748Z,88
2022-10-05T03:30:31.762Z,88
2022-10-05T03:31:31.872Z,88
2022-10-05T03:32:31.804Z,88
2022-10-05T03:33:31.690Z,88
2022-10-05T03:34:31.662Z,88
2022-10-05T03:35:31.737Z,88
2022-10-05T03:36:31.666Z,88
2022-10-05T03:37:31.812Z,88
2022-10-05T03:38:31.656Z,88
2022-10-05T03:39:31.711Z,88
2022-10-05T03:40:31.815Z,87
2022-10-05T03:41:31.828Z,88
2022-10-05T03:42:31.784Z,87
2022-10-05T03:43:31.815Z,88
2022-10-05T03:44:31.673Z,88
2022-10-05T03:45:31.742Z,88
2022-10-05T03:46:31.730Z,88
2022-10-05T03:47:31.694Z,88
2022-10-05T03:48:31.679Z,88
2022-10-05T03:49:31.708Z,88
2022-10-05T03:50:31.682Z,88
2022-10-05T03:51:31.694Z,88
2022-10-05T03:52:31.712Z,87
2022-10-05T03:53:31.677Z,87
2022-10-05T03:54:31.672Z,87
2022-10-05T03:55:31.679Z,87
2022-10-05T03:56:31.706Z,87
2022-10-05T03:57:31.687Z,87
2022-10-05T03:58:31.654Z,87
2022-10-05T03:59:32.805Z,87
2022-10-05T04:00:31.698Z,87
2022-10-05T04:01:31.714Z,87
2022-10-05T04:02:31.731Z,87
2022-10-05T04:03:31.850Z,87
2022-10-05T04:04:31.682Z,87
2022-10-05T04:05:31.715Z,87
2022-10-05T04:06:31.679Z,87
2022-10-05T04:07:31.701Z,87
2022-10-05T04:08:31.694Z,87
2022-10-05T04:09:31.735Z,87
2022-10-05T04:10:31.671Z,87
2022-10-05T04:11:31.681Z,87
2022-10-05T04:12:31.829Z,87
2022-10-05T04:13:31.726Z,87
2022-10-05T04:14:31.680Z,87
2022-10-05T04:15:31.737Z,87
2022-10-05T04:16:31.679Z,87
2022-10-05T04:17:31.677Z,87
2022-10-05T04:18:31.654Z,87
2022-10-05T04:19:31.702Z,87
2022-10-05T04:20:31.683Z,87
2022-10-05T04:21:31.699Z,87
2022-10-05T04:22:31.797Z,87
2022-10-05T04:23:31.696Z,87
2022-10-05T04:24:31.674Z,87
2022-10-05T04:25:31.697Z,87
2022-10-05T04:26:31.691Z,87
2022-10-05T04:27:31.689Z,87
2022-10-05T04:28:32.465Z,87
2022-10-05T04:29:31.683Z,87
2022-10-05T04:30:31.649Z,88
2022-10-05T04:31:31.740Z,88
2022-10-05T04:32:31.708Z,88
2022-10-05T04:33:31.675Z,87
2022-10-05T04:34:31.683Z,87
2022-10-05T04:35:31.692Z,87
2022-10-05T04:36:31.647Z,87
2022-10-05T04:37:31.694Z,88
2022-10-05T04:38:31.698Z,88
2022-10-05T04:39:31.711Z,88
2022-10-05T04:40:31.643Z,88
2022-10-05T04:41:31.714Z,88
2022-10-05T04:42:31.757Z,88
2022-10-05T04:43:31.685Z,88
2022-10-05T04:44:31.657Z,88
2022-10-05T04:45:31.687Z,88
2022-10-05T04:46:31.713Z,88
2022-10-05T04:47:31.706Z,88
2022-10-05T04:48:31.658Z,88
2022-10-05T04:49:31.676Z,88
2022-10-05T04:50:31.681Z,88
2022-10-05T04:51:31.692Z,88
2022-10-05T04:52:31.646Z,88
2022-10-05T04:53:31.727Z,88
2022-10-05T04:54:31.750Z,88
2022-10-05T04:55:31.699Z,88
2022-10-05T04:56:31.669Z,88
2022-10-05T04:57:31.672Z,88
2022-10-05T04:58:31.660Z,88
2022-10-05T04:59:31.709Z,88
2022-10-05T05:00:31.730Z,88
2022-10-05T05:01:31.696Z,88
2022-10-05T05:02:31.702Z,88
2022-10-05T05:03:31.893Z,88
2022-10-05T05:04:31.818Z,88
2022-10-05T05:05:31.702Z,88
2022-10-05T05:06:31.711Z,88
2022-10-05T05:07:31.707Z,88
2022-10-05T05:08:31.666Z,88
2022-10-05T05:09:31.691Z,88
2022-10-05T05:10:31.686Z,88
2022-10-05T05:11:31.682Z,88
2022-10-05T05:12:31.670Z,88
2022-10-05T05:13:31.739Z,88
2022-10-05T05:14:31.695Z,88
2022-10-05T05:15:31.675Z,88
2022-10-05T05:16:31.739Z,88
2022-10-05T05:17:31.706Z,88
2022-10-05T05:18:31.696Z,88
2022-10-05T05:19:31.686Z,88
2022-10-05T05:20:31.738Z,88
2022-10-05T05:21:31.683Z,88
2022-10-05T05:22:32.721Z,88
2022-10-05T05:23:31.863Z,88
2022-10-05T05:24:31.683Z,88
2022-10-05T05:25:31.668Z,88
2022-10-05T05:26:35.550Z,88
2022-10-05T05:27:31.674Z,88
2022-10-05T05:28:31.783Z,88
2022-10-05T05:29:31.704Z,88
2022-10-05T05:30:32.063Z,88
2022-10-05T05:31:31.811Z,88
2022-10-05T05:32:31.639Z,88
2022-10-05T05:33:31.695Z,88
2022-10-05T05:34:31.715Z,88
2022-10-05T05:35:31.671Z,88
2022-10-05T05:36:31.640Z,88
2022-10-05T05:37:31.695Z,88
2022-10-05T05:38:31.691Z,88
2022-10-05T05:39:31.710Z,88
2022-10-05T05:40:31.661Z,88
2022-10-05T05:41:31.670Z,88
2022-10-05T05:42:31.688Z,88
2022-10-05T05:43:31.643Z,88
2022-10-05T05:44:34.256Z,88
2022-10-05T05:45:31.675Z,88
2022-10-05T05:46:58.298Z,88
2022-10-05T05:47:31.766Z,88
2022-10-05T05:48:31.653Z,88
2022-10-05T05:49:31.816Z,88
2022-10-05T05:50:31.749Z,88
2022-10-05T05:51:31.689Z,88
2022-10-05T05:52:31.673Z,88
2022-10-05T05:53:31.677Z,88
2022-10-05T05:54:31.651Z,88
2022-10-05T05:55:31.676Z,88
2022-10-05T05:56:31.668Z,88
2022-10-05T05:57:31.697Z,88
2022-10-05T05:58:31.797Z,88
2022-10-05T05:59:31.695Z,88
2022-10-05T06:00:31.657Z,88
2022-10-05T06:01:33.660Z,88
2022-10-05T06:02:31.784Z,88
2022-10-05T06:03:31.694Z,88
2022-10-05T06:04:31.680Z,88
2022-10-05T06:05:31.721Z,88
2022-10-05T06:06:31.674Z,88
2022-10-05T06:07:31.702Z,88
2022-10-05T06:08:31.677Z,88
2022-10-05T06:09:31.721Z,88
2022-10-05T06:10:31.656Z,88
2022-10-05T06:11:31.677Z,88
2022-10-05T06:12:31.687Z,88
2022-10-05T06:13:31.674Z,88
2022-10-05T06:14:31.770Z,88
2022-10-05T06:15:31.725Z,88
2022-10-05T06:16:31.903Z,88
2022-10-05T06:17:31.755Z,88
2022-10-05T06:18:31.671Z,88
2022-10-05T06:19:31.727Z,88
2022-10-05T06:20:31.648Z,88
2022-10-05T06:21:31.692Z,88
2022-10-05T06:22:31.814Z,88
2022-10-05T06:23:31.690Z,88
2022-10-05T06:24:31.669Z,88
2022-10-05T06:25:31.675Z,88
2022-10-05T06:26:31.661Z,88
2022-10-05T06:27:31.687Z,88
2022-10-05T06:28:31.865Z,88
2022-10-05T06:29:31.828Z,88
2022-10-05T06:30:31.636Z,88
2022-10-05T06:31:31.772Z,88
2022-10-05T06:32:31.671Z,88
2022-10-05T06:33:31.698Z,88
2022-10-05T06:34:31.634Z,88
2022-10-05T06:35:31.703Z,88
2022-10-05T06:36:31.678Z,88
2022-10-05T06:37:31.683Z,88
2022-10-05T06:38:31.653Z,88
2022-10-05T06:39:31.663Z,88
2022-10-05T06:40:31.665Z,88
2022-10-05T06:41:31.666Z,88
2022-10-05T06:42:31.664Z,88
2022-10-05T06:43:31.867Z,88
2022-10-05T06:44:31.665Z,88
2022-10-05T06:45:31.787Z,88
2022-10-05T06:46:31.654Z,88
2022-10-05T06:47:31.685Z,88
2022-10-05T06:48:31.705Z,88
2022-10-05T06:49:31.760Z,88
2022-10-05T06:50:31.623Z,88
2022-10-05T06:51:31.684Z,88
2022-10-05T06:52:31.660Z,88
2022-10-05T06:53:31.668Z,88
2022-10-05T06:54:31.663Z,88
2022-10-05T06:55:31.667Z,88
2022-10-05T06:56:31.771Z,88
2022-10-05T06:57:31.863Z,88
2022-10-05T06:58:31.627Z,88
2022-10-05T06:59:31.758Z,88
2022-10-05T07:00:31.688Z,88
2022-10-05T07:01:31.783Z,88
2022-10-05T07:02:31.698Z,88
2022-10-05T07:03:31.669Z,88
2022-10-05T07:04:36.611Z,88
2022-10-05T07:05:31.692Z,88
2022-10-05T07:06:31.648Z,88
2022-10-05T07:07:31.662Z,88
2022-10-05T07:08:31.679Z,88
2022-10-05T07:09:31.670Z,88
2022-10-05T07:10:31.687Z,88
2022-10-05T07:11:32.036Z,88
2022-10-05T07:12:31.677Z,88
2022-10-05T07:13:31.737Z,88
2022-10-05T07:14:31.649Z,88
2022-10-05T07:15:31.659Z,88
2022-10-05T07:16:31.746Z,88
2022-10-05T07:17:31.708Z,88
2022-10-05T07:18:31.678Z,88
2022-10-05T07:19:31.688Z,88
2022-10-05T07:20:31.657Z,88
2022-10-05T07:21:31.643Z,88
2022-10-05T07:22:33.516Z,88
2022-10-05T07:23:31.677Z,88
2022-10-05T07:24:31.685Z,88
2022-10-05T07:25:31.677Z,88
2022-10-05T07:26:31.670Z,88
2022-10-05T07:27:31.656Z,88
2022-10-05T07:28:31.813Z,88
2022-10-05T07:29:31.665Z,88
2022-10-05T07:30:31.759Z,88
2022-10-05T07:31:31.668Z,88
2022-10-05T07:32:31.671Z,88
2022-10-05T07:33:31.622Z,88
2022-10-05T07:34:31.687Z,88
2022-10-05T07:35:31.674Z,88
2022-10-05T07:36:31.735Z,88
2022-10-05T07:37:31.662Z,88
2022-10-05T07:38:31.662Z,88
2022-10-05T07:39:55.380Z,88
2022-10-05T07:40:31.715Z,88
2022-10-05T07:41:31.657Z,88
2022-10-05T07:42:31.651Z,88
2022-10-05T07:43:45.320Z,88
2022-10-05T07:44:31.716Z,88
2022-10-05T07:45:31.669Z,88
2022-10-05T07:46:31.672Z,88
2022-10-05T07:47:31.662Z,88
2022-10-05T07:48:31.663Z,88
2022-10-05T07:49:31.693Z,88
2022-10-05T07:50:31.662Z,88
2022-10-05T07:51:31.672Z,88
2022-10-05T07:52:34.788Z,88
2022-10-05T07:53:31.646Z,88
2022-10-05T07:54:31.689Z,88
2022-10-05T07:55:31.673Z,88
2022-10-05T07:56:31.686Z,88
2022-10-05T07:57:31.637Z,88
2022-10-05T07:58:31.654Z,87
2022-10-05T07:59:31.681Z,87
2022-10-05T08:00:31.685Z,88
2022-10-05T08:01:31.728Z,87
2022-10-05T08:02:31.908Z,87
2022-10-05T08:03:31.674Z,87
2022-10-05T08:04:31.662Z,88
2022-10-05T08:05:31.650Z,87
2022-10-05T08:06:31.665Z,87
2022-10-05T08:07:31.688Z,87
2022-10-05T08:08:31.688Z,87
2022-10-05T08:09:31.693Z,87
2022-10-05T08:10:31.653Z,87
2022-10-05T08:11:31.656Z,87
2022-10-05T08:12:31.674Z,87
2022-10-05T08:13:31.624Z,87
2022-10-05T08:14:31.657Z,87
2022-10-05T08:15:31.665Z,87
2022-10-05T08:16:31.662Z,87
2022-10-05T08:17:31.632Z,87
2022-10-05T08:18:31.698Z,87
2022-10-05T08:19:31.722Z,87
2022-10-05T08:20:31.651Z,87
2022-10-05T08:21:31.628Z,87
2022-10-05T08:22:31.673Z,87
2022-10-05T08:23:31.660Z,87
2022-10-05T08:24:31.818Z,87
2022-10-05T08:25:31.642Z,87
2022-10-05T08:26:31.746Z,87
2022-10-05T08:27:31.644Z,87
2022-10-05T08:28:31.723Z,87
2022-10-05T08:29:31.627Z,87
2022-10-05T08:30:31.666Z,87
2022-10-05T08:31:31.868Z,87
2022-10-05T08:32:31.691Z,87
2022-10-05T08:33:31.663Z,87
2022-10-05T08:34:31.653Z,87
2022-10-05T08:35:31.626Z,87
2022-10-05T08:36:31.674Z,87
2022-10-05T08:37:31.844Z,87
2022-10-05T08:38:31.678Z,87
2022-10-05T08:39:31.642Z,87
2022-10-05T08:40:31.667Z,87
2022-10-05T08:41:31.645Z,87
2022-10-05T08:42:31.650Z,87
2022-10-05T08:43:35.156Z,87
2022-10-05T08:44:31.669Z,87
2022-10-05T08:45:31.671Z,87
2022-10-05T08:46:31.830Z,87
2022-10-05T08:47:31.817Z,87
2022-10-05T08:48:31.655Z,87
2022-10-05T08:49:35.003Z,87
2022-10-05T08:50:31.620Z,87
2022-10-05T08:51:31.672Z,87
2022-10-05T08:52:31.685Z,87
2022-10-05T08:53:31.672Z,87
2022-10-05T08:54:31.646Z,86
2022-10-05T08:55:31.719Z,86
2022-10-05T08:56:31.679Z,86
2022-10-05T08:57:31.657Z,86
2022-10-05T08:58:31.657Z,86
2022-10-05T08:59:31.688Z,86
2022-10-05T09:00:31.655Z,86
2022-10-05T09:01:32.077Z,87
2022-10-05T09:02:31.699Z,86
2022-10-05T09:03:34.467Z,86
2022-10-05T09:04:31.664Z,87
2022-10-05T09:05:31.675Z,86
2022-10-05T09:06:31.645Z,86
2022-10-05T09:07:31.635Z,86
2022-10-05T09:08:31.678Z,87
2022-10-05T09:09:31.650Z,86
2022-10-05T09:10:31.638Z,86
2022-10-05T09:11:31.705Z,86
2022-10-05T09:12:31.722Z,86
2022-10-05T09:13:31.633Z,86
2022-10-05T09:14:31.647Z,86
2022-10-05T09:15:31.689Z,86
2022-10-05T09:16:31.742Z,86
2022-10-05T09:17:34.721Z,86
2022-10-05T09:18:31.685Z,86
2022-10-05T09:19:31.654Z,86
2022-10-05T09:20:31.639Z,86
2022-10-05T09:21:31.643Z,86
2022-10-05T09:22:31.623Z,86
2022-10-05T09:23:31.657Z,86
2022-10-05T09:24:31.713Z,86
2022-10-05T09:25:31.633Z,86
2022-10-05T09:26:31.666Z,86
2022-10-05T09:27:31.709Z,86
2022-10-05T09:28:31.893Z,86
2022-10-05T09:29:31.665Z,86
2022-10-05T09:30:31.670Z,86
2022-10-05T09:31:31.759Z,86
2022-10-05T09:32:31.658Z,86
2022-10-05T09:33:31.608Z,86
2022-10-05T09:34:31.651Z,86
2022-10-05T09:35:31.764Z,86
2022-10-05T09:36:31.668Z,86
2022-10-05T09:37:31.618Z,86
2022-10-05T09:38:31.689Z,86
2022-10-05T09:39:31.660Z,86
2022-10-05T09:40:31.664Z,86
2022-10-05T09:41:31.629Z,86
2022-10-05T09:42:31.652Z,86
2022-10-05T09:43:31.667Z,86
2022-10-05T09:44:31.668Z,86
2022-10-05T09:45:31.624Z,86
2022-10-05T09:46:31.725Z,86
2022-10-05T09:47:31.769Z,86
2022-10-05T09:48:31.671Z,86
2022-10-05T09:49:31.672Z,86
2022-10-05T09:50:31.640Z,86
2022-10-05T09:51:31.661Z,86
2022-10-05T09:52:31.665Z,86
2022-10-05T09:53:31.633Z,86
2022-10-05T09:54:31.653Z,86
2022-10-05T09:55:31.693Z,86
2022-10-05T09:56:31.645Z,86
2022-10-05T09:57:31.621Z,86
2022-10-05T09:58:31.655Z,86
2022-10-05T09:59:31.731Z,86
2022-10-05T10:00:31.644Z,86
2022-10-05T10:01:34.270Z,86
2022-10-05T10:02:31.772Z,86
2022-10-05T10:03:31.745Z,86
2022-10-05T10:04:31.862Z,86
2022-10-05T10:05:31.643Z,86
2022-10-05T10:06:31.658Z,86
2022-10-05T10:07:31.617Z,86
2022-10-05T10:08:31.577Z,86
2022-10-05T10:09:35.203Z,86
2022-10-05T10:10:31.623Z,86
2022-10-05T10:11:31.649Z,85
2022-10-05T10:12:31.682Z,85
2022-10-05T10:13:31.726Z,85
2022-10-05T10:14:31.658Z,85
2022-10-05T10:15:31.725Z,85
2022-10-05T10:16:31.673Z,85
2022-10-05T10:17:31.630Z,85
2022-10-05T10:18:31.651Z,85
2022-10-05T10:19:31.623Z,86
2022-10-05T10:20:31.740Z,85
2022-10-05T10:21:31.837Z,85
2022-10-05T10:22:31.688Z,86
2022-10-05T10:23:31.641Z,86
2022-10-05T10:24:31.885Z,86
2022-10-05T10:25:31.646Z,86
2022-10-05T10:26:31.634Z,86
2022-10-05T10:27:31.659Z,86
2022-10-05T10:28:31.750Z,86
2022-10-05T10:29:31.649Z,86
2022-10-05T10:30:33.165Z,86
2022-10-05T10:31:31.747Z,86
2022-10-05T10:32:31.630Z,86
2022-10-05T10:33:31.603Z,87
2022-10-05T10:34:31.675Z,87
2022-10-05T10:35:31.797Z,87
2022-10-05T10:36:31.650Z,87
2022-10-05T10:37:31.627Z,87
2022-10-05T10:38:31.664Z,87
2022-10-05T10:39:31.651Z,87
2022-10-05T10:40:31.666Z,87
2022-10-05T10:41:31.632Z,87
2022-10-05T10:42:31.634Z,87
2022-10-05T10:43:32.379Z,87
2022-10-05T10:44:31.661Z,86
2022-10-05T10:45:31.625Z,86
2022-10-05T10:46:31.669Z,86
2022-10-05T10:47:31.645Z,86
2022-10-05T10:48:31.646Z,86
2022-10-05T10:49:31.639Z,86
2022-10-05T10:50:31.651Z,86
2022-10-05T10:51:31.661Z,86
2022-10-05T10:52:31.642Z,86
2022-10-05T10:53:31.618Z,86
2022-10-05T10:54:31.639Z,86
2022-10-05T10:55:31.658Z,86
2022-10-05T10:56:31.775Z,86
2022-10-05T10:57:31.632Z,86
2022-10-05T10:58:31.652Z,86
2022-10-05T10:59:31.909Z,86
2022-10-05T11:00:31.649Z,85
2022-10-05T11:01:31.742Z,85
2022-10-05T11:02:31.786Z,85
2022-10-05T11:03:31.665Z,85
2022-10-05T11:04:31.659Z,85
2022-10-05T11:05:31.605Z,85
2022-10-05T11:06:31.716Z,85
2022-10-05T11:07:31.638Z,85
2022-10-05T11:08:31.661Z,85
2022-10-05T11:09:31.629Z,85
2022-10-05T11:10:31.668Z,85
2022-10-05T11:11:31.653Z,85
2022-10-05T11:12:34.584Z,85
2022-10-05T11:13:31.601Z,85
2022-10-05T11:14:31.663Z,85
2022-10-05T11:15:31.653Z,85
2022-10-05T11:16:31.651Z,84
2022-10-05T11:17:31.607Z,85
2022-10-05T11:18:31.638Z,85
2022-10-05T11:19:40.225Z,84
2022-10-05T11:20:31.630Z,84
2022-10-05T11:21:31.697Z,84
2022-10-05T11:22:31.632Z,84
2022-10-05T11:23:36.515Z,84
2022-10-05T11:24:31.638Z,84
2022-10-05T11:25:31.614Z,84
2022-10-05T11:26:31.663Z,84
2022-10-05T11:27:31.635Z,84
2022-10-05T11:28:31.725Z,84
2022-10-05T11:29:31.594Z,84
2022-10-05T11:30:31.736Z,84
2022-10-05T11:31:31.780Z,84
2022-10-05T11:32:31.647Z,84
2022-10-05T11:33:31.659Z,84
2022-10-05T11:34:31.689Z,84
2022-10-05T11:35:31.625Z,84
2022-10-05T11:36:31.655Z,84
2022-10-05T11:37:31.831Z,84
2022-10-05T11:38:31.773Z,84
2022-10-05T11:39:31.668Z,84
2022-10-05T11:40:31.628Z,84
2022-10-05T11:41:31.609Z,84
2022-10-05T11:42:31.665Z,84
2022-10-05T11:43:31.647Z,84
2022-10-05T11:44:31.758Z,84
2022-10-05T11:45:31.635Z,84
2022-10-05T11:46:31.683Z,84
2022-10-05T11:47:31.806Z,84
2022-10-05T11:48:31.658Z,84
2022-10-05T11:49:31.641Z,84
2022-10-05T11:50:31.662Z,84
2022-10-05T11:51:31.633Z,84
2022-10-05T11:52:31.622Z,84
2022-10-05T11:53:31.605Z,84
2022-10-05T11:54:35.137Z,84
2022-10-05T11:55:31.682Z,84
2022-10-05T11:56:31.618Z,84
2022-10-05T11:57:31.616Z,84
2022-10-05T11:58:31.636Z,84
2022-10-05T11:59:31.717Z,84
2022-10-05T12:00:31.720Z,84
2022-10-05T12:01:31.620Z,84
2022-10-05T12:02:31.835Z,84
2022-10-05T12:03:31.790Z,84
2022-10-05T12:04:31.670Z,84
2022-10-05T12:05:31.658Z,84
2022-10-05T12:06:31.640Z,84
2022-10-05T12:07:31.634Z,84
2022-10-05T12:08:31.674Z,84
2022-10-05T12:09:31.628Z,84
2022-10-05T12:10:31.819Z,84
2022-10-05T12:11:31.636Z,84
2022-10-05T12:12:31.718Z,84
2022-10-05T12:13:31.692Z,84
2022-10-05T12:14:31.666Z,84
2022-10-05T12:15:31.675Z,84
2022-10-05T12:16:31.633Z,84
2022-10-05T12:17:31.726Z,84
2022-10-05T12:18:31.660Z,84
2022-10-05T12:19:31.628Z,84
2022-10-05T12:20:31.756Z,84
2022-10-05T12:21:31.614Z,84
2022-10-05T12:22:31.628Z,84
2022-10-05T12:23:31.648Z,84
2022-10-05T12:24:31.648Z,84
2022-10-05T12:25:31.624Z,84
2022-10-05T12:26:31.627Z,84
2022-10-05T12:27:31.648Z,84
2022-10-05T12:28:31.741Z,84
2022-10-05T12:29:31.592Z,84
2022-10-05T12:30:31.649Z,84
2022-10-05T12:31:31.761Z,84
2022-10-05T12:32:31.659Z,84
2022-10-05T12:33:31.648Z,84
2022-10-05T12:34:31.636Z,84
2022-10-05T12:35:47.313Z,84
2022-10-05T12:36:46.217Z,84
2022-10-05T12:37:31.718Z,84
2022-10-05T12:38:31.619Z,84
2022-10-05T12:39:31.616Z,84
2022-10-05T12:40:31.640Z,84
2022-10-05T12:41:31.919Z,84
2022-10-05T12:42:31.652Z,85
2022-10-05T12:43:31.807Z,85
2022-10-05T12:44:31.772Z,85
2022-10-05T12:45:31.649Z,85
2022-10-05T12:46:31.621Z,85
2022-10-05T12:47:31.639Z,85
2022-10-05T12:48:31.656Z,85
2022-10-05T12:49:31.587Z,84
2022-10-05T12:50:31.748Z,85
2022-10-05T12:51:31.622Z,85
2022-10-05T12:52:31.627Z,85
2022-10-05T12:53:31.608Z,85
2022-10-05T12:54:31.725Z,85
2022-10-05T12:55:31.672Z,85
2022-10-05T12:56:31.683Z,85
2022-10-05T12:57:31.609Z,85
2022-10-05T12:58:31.722Z,85
2022-10-05T12:59:31.694Z,85
2022-10-05T13:00:31.691Z,85
2022-10-05T13:01:31.698Z,85
2022-10-05T13:02:31.632Z,85
2022-10-05T13:03:31.641Z,85
2022-10-05T13:04:31.657Z,85
2022-10-05T13:05:31.627Z,85
2022-10-05T13:06:31.653Z,85
2022-10-05T13:07:31.638Z,85
2022-10-05T13:08:31.633Z,86
2022-10-05T13:09:31.600Z,86
2022-10-05T13:10:31.661Z,86
2022-10-05T13:11:31.612Z,86
2022-10-05T13:12:31.639Z,86
2022-10-05T13:13:31.641Z,87
2022-10-05T13:14:31.635Z,87
2022-10-05T13:15:31.667Z,87
2022-10-05T13:16:31.691Z,87
2022-10-05T13:17:31.578Z,88
2022-10-05T13:18:31.644Z,88
2022-10-05T13:19:31.668Z,88
2022-10-05T13:20:31.628Z,88
2022-10-05T13:21:31.595Z,88
2022-10-05T13:22:31.658Z,88
2022-10-05T13:23:31.631Z,88
2022-10-05T13:24:31.691Z,89
2022-10-05T13:25:31.594Z,89
2022-10-05T13:26:31.765Z,89
2022-10-05T13:27:31.688Z,89
2022-10-05T13:28:31.663Z,89
2022-10-05T13:29:31.603Z,89
2022-10-05T13:30:31.620Z,89
2022-10-05T13:31:31.654Z,89
2022-10-05T13:32:31.658Z,90
2022-10-05T13:33:31.647Z,90
2022-10-05T13:34:31.633Z,90
2022-10-05T13:35:31.619Z,90
2022-10-05T13:36:31.607Z,90
2022-10-05T13:37:31.655Z,90
2022-10-05T13:38:31.606Z,90
2022-10-05T13:39:31.583Z,90
2022-10-05T13:40:31.639Z,90
2022-10-05T13:41:31.634Z,90
2022-10-05T13:42:31.672Z,90
2022-10-05T13:43:31.718Z,90
2022-10-05T13:44:31.751Z,90
2022-10-05T13:45:31.722Z,90
2022-10-05T13:46:31.659Z,90
2022-10-05T13:47:31.603Z,90
2022-10-05T13:48:31.623Z,90
2022-10-05T13:49:31.620Z,90
2022-10-05T13:50:33.558Z,90
2022-10-05T13:51:31.615Z,90
2022-10-05T13:52:31.753Z,90
2022-10-05T13:53:31.611Z,90
2022-10-05T13:54:31.610Z,90
2022-10-05T13:55:31.618Z,90
2022-10-05T13:56:31.629Z,90
2022-10-05T13:57:31.643Z,90
2022-10-05T13:58:31.654Z,90
2022-10-05T13:59:31.607Z,90
2022-10-05T14:00:31.718Z,90
2022-10-05T14:01:31.635Z,90
2022-10-05T14:02:31.699Z,90
2022-10-05T14:03:31.791Z,90
2022-10-05T14:04:31.643Z,90
2022-10-05T14:05:31.623Z,90
2022-10-05T14:06:31.607Z,90
2022-10-05T14:07:31.620Z,90
2022-10-05T14:08:31.638Z,90
2022-10-05T14:09:31.625Z,90
2022-10-05T14:10:31.618Z,90
2022-10-05T14:11:31.593Z,89
2022-10-05T14:12:31.611Z,89
2022-10-05T14:13:31.648Z,89
2022-10-05T14:14:31.626Z,89
2022-10-05T14:15:31.646Z,89